• °C
  • Pobieranie danych...
wx


PRINT OUT SECTION, show »

METAR EPBY 240900Z 24009KT 4200 BR OVC002 01/00 Q1033=

METAR EPGD 240900Z 25007KT 5000 -DZ BR OVC003 02/01 Q1031 =

METAR EPKK 240900Z 09002KT 8000 NSC M05/M10 Q1036 =

METAR EPKT 240900Z 16006KT CAVOK M03/M07 Q1035 =

METAR EPLB 240900Z 23006KT CAVOK M07/M08 Q1036 =

METAR EPLL 240900Z 17003KT 130V230 8000 SCT026 M01/M04 Q1034 =

METAR EPML 240900Z AUTO VRB01KT 3500 BR NCD M07/M09 Q1037=

METAR EPMO 240900Z 17006KT 9999 FEW022 M02/M06 Q1035 =

METAR EPPO 240900Z 24005KT 6000 FEW003 OVC007 02/02 Q1034 =

METAR EPRA 240900Z 19007KT 7000 NSC M05/M05 Q1036=

METAR EPRZ 240900Z VRB02KT 3500 BR BKN008 M10/M11 Q1037 =

METAR EPSC 240900Z 27006KT 3000 -DZ BR OVC002 05/04 Q1033 =

METAR EPSY 240900Z 21007KT 9999 BKN015 BKN035 M02/M04 Q1033=

METAR EPWA 240900Z 18005KT CAVOK M03/M06 Q1035 NOSIG=

METAR EPWR 240900Z 15005KT 9999 OVC006 01/M00 Q1035 =

METAR EPZG 240900Z VRB02KT 1000 R24/1700N BR SCT002 BKN005 02/02
Q1035 =
 METAR EPML
Lokalizacja:EPML Mielec
Czas:09:00 UTC
AUTO:Depesza całkowicie automatyczna, bez udziału obserwatora
Średni kierunek wiatru:zmienny
Średnia prędkość wiatru:1 węzłów
Widzialność:3500 metrów
Zjawisko:zamglenie
Zachmurzenie :brak możliwości ustalenia
Temperatura powietrza:-7 °C
Temperatura punktu rosy:-9 °C
Ciśnienie QNH:1037 hPa



IMGW-PIB Sites